createdAt,value
2022-12-26T00:01:00.475Z,13.77
2022-12-26T00:03:30.815Z,14.35
2022-12-26T00:05:59.757Z,14.52
2022-12-26T00:08:28.440Z,13.93
2022-12-26T00:10:57.135Z,13.20
2022-12-26T00:13:38.108Z,14.07
2022-12-26T00:16:12.665Z,14.15
2022-12-26T00:18:41.599Z,13.90
2022-12-26T00:21:11.274Z,14.18
2022-12-26T00:23:39.635Z,16.00
2022-12-26T00:26:08.728Z,14.93
2022-12-26T00:28:37.902Z,14.40
2022-12-26T00:31:07.306Z,15.15
2022-12-26T00:33:37.628Z,13.93
2022-12-26T00:36:07.775Z,15.15
2022-12-26T00:38:36.157Z,15.18
2022-12-26T00:41:05.139Z,15.13
2022-12-26T00:43:33.971Z,14.95
2022-12-26T00:46:02.515Z,15.18
2022-12-26T00:48:30.996Z,14.98
2022-12-26T00:51:01.418Z,15.02
2022-12-26T00:53:30.350Z,15.52
2022-12-26T00:55:58.787Z,17.38
2022-12-26T00:58:27.584Z,16.88
2022-12-26T01:00:56.296Z,16.40
2022-12-26T01:03:25.594Z,16.15
2022-12-26T01:05:54.327Z,17.05
2022-12-26T01:08:25.171Z,15.55
2022-12-26T01:10:53.931Z,16.20
2022-12-26T01:13:22.155Z,15.63
2022-12-26T01:15:51.299Z,16.67
2022-12-26T01:18:20.066Z,16.42
2022-12-26T01:20:49.033Z,16.00
2022-12-26T01:23:18.838Z,16.17
2022-12-26T01:26:17.603Z,16.08
2022-12-26T01:28:36.942Z,15.55
2022-12-26T01:31:06.118Z,15.48
2022-12-26T01:33:34.328Z,15.98
2022-12-26T01:36:02.681Z,17.40
2022-12-26T01:38:31.387Z,16.40
2022-12-26T01:41:20.648Z,16.98
2022-12-26T01:43:59.256Z,18.23
2022-12-26T01:46:30.643Z,17.15
2022-12-26T01:49:00.912Z,17.65
2022-12-26T01:51:31.350Z,16.73
2022-12-26T01:54:37.913Z,17.98
2022-12-26T01:56:51.246Z,17.40
2022-12-26T01:59:23.875Z,17.92
2022-12-26T02:01:54.764Z,17.63
2022-12-26T02:04:45.229Z,17.42
2022-12-26T02:07:13.687Z,17.23
2022-12-26T02:09:42.516Z,17.55
2022-12-26T02:12:34.322Z,18.67
2022-12-26T02:15:04.924Z,17.02
2022-12-26T02:17:33.406Z,17.08
2022-12-26T02:20:06.504Z,17.75
2022-12-26T02:22:45.118Z,17.17
2022-12-26T02:25:25.263Z,17.33
2022-12-26T02:28:11.275Z,16.70
2022-12-26T02:30:45.910Z,16.93
2022-12-26T02:33:21.937Z,15.35
2022-12-26T02:36:07.538Z,15.38
2022-12-26T02:38:39.525Z,17.60
2022-12-26T02:41:14.176Z,15.57
2022-12-26T02:43:46.612Z,15.18
2022-12-26T02:46:37.869Z,15.80
2022-12-26T02:49:07.853Z,14.85
2022-12-26T02:52:00.366Z,15.55
2022-12-26T02:54:49.412Z,15.93
2022-12-26T02:57:37.013Z,16.45
2022-12-26T03:00:25.329Z,14.95
2022-12-26T03:03:13.896Z,15.35
2022-12-26T03:06:00.661Z,14.63
2022-12-26T03:08:48.855Z,14.73
2022-12-26T03:11:34.571Z,15.40
2022-12-26T03:14:06.683Z,14.85
2022-12-26T03:16:52.978Z,15.23
2022-12-26T03:19:24.207Z,14.95
2022-12-26T03:21:53.354Z,15.52
2022-12-26T03:24:22.790Z,15.23
2022-12-26T03:26:52.605Z,14.85
2022-12-26T03:29:38.941Z,14.35
2022-12-26T03:32:08.321Z,15.35
2022-12-26T03:34:38.064Z,14.35
2022-12-26T03:37:16.318Z,14.38
2022-12-26T03:40:05.662Z,14.52
2022-12-26T03:42:55.753Z,14.23
2022-12-26T03:45:47.166Z,14.00
2022-12-26T03:48:37.107Z,13.93
2022-12-26T03:51:26.558Z,14.75
2022-12-26T03:54:14.332Z,14.95
2022-12-26T03:57:01.501Z,14.43
2022-12-26T03:59:49.227Z,13.85
2022-12-26T04:02:36.062Z,14.05
2022-12-26T04:05:23.397Z,14.23
2022-12-26T04:08:17.996Z,13.23
2022-12-26T04:11:07.746Z,13.68
2022-12-26T04:13:57.035Z,13.07
2022-12-26T04:16:46.569Z,13.65
2022-12-26T04:19:30.225Z,13.30
2022-12-26T04:22:22.313Z,14.63
2022-12-26T04:25:14.894Z,13.68
2022-12-26T04:28:00.672Z,13.95
2022-12-26T04:30:46.514Z,13.93
2022-12-26T04:33:36.984Z,13.70
2022-12-26T04:36:25.508Z,13.27
2022-12-26T04:39:14.417Z,13.98
2022-12-26T04:42:02.127Z,13.10
2022-12-26T04:44:31.593Z,13.57
2022-12-26T04:46:59.792Z,13.82
2022-12-26T04:49:45.964Z,13.77
2022-12-26T04:52:14.955Z,14.27
2022-12-26T04:54:43.729Z,13.32
2022-12-26T04:57:13.517Z,13.48
2022-12-26T04:59:41.772Z,14.45
2022-12-26T05:02:27.663Z,14.02
2022-12-26T05:05:13.078Z,13.70
2022-12-26T05:07:58.935Z,14.25
2022-12-26T05:10:27.767Z,15.23
2022-12-26T05:12:59.313Z,14.43
2022-12-26T05:15:27.713Z,15.07
2022-12-26T05:18:13.583Z,14.02
2022-12-26T05:21:10.848Z,14.20
2022-12-26T05:23:56.665Z,13.55
2022-12-26T05:26:42.609Z,14.90
2022-12-26T05:29:12.762Z,14.77
2022-12-26T05:31:41.205Z,15.43
2022-12-26T05:34:08.367Z,14.93
2022-12-26T05:36:38.661Z,15.18
2022-12-26T05:39:07.158Z,16.15
2022-12-26T05:41:36.310Z,14.40
2022-12-26T05:44:05.384Z,15.10
2022-12-26T05:46:35.730Z,14.32
2022-12-26T05:49:04.515Z,14.10
2022-12-26T05:51:32.986Z,14.40
2022-12-26T05:54:01.522Z,14.23
2022-12-26T05:56:30.331Z,15.23
2022-12-26T05:59:00.286Z,14.43
2022-12-26T06:01:30.076Z,14.70
2022-12-26T06:04:01.337Z,14.98
2022-12-26T06:06:30.221Z,14.05
2022-12-26T06:08:58.845Z,14.60
2022-12-26T06:11:27.909Z,14.50
2022-12-26T06:13:56.753Z,14.15
2022-12-26T06:16:25.433Z,14.45
2022-12-26T06:18:55.840Z,14.82
2022-12-26T06:21:26.403Z,14.25
2022-12-26T06:23:55.068Z,15.15
2022-12-26T06:26:23.877Z,16.00
2022-12-26T06:28:53.086Z,14.68
2022-12-26T06:31:23.160Z,15.20
2022-12-26T06:33:52.397Z,14.23
2022-12-26T06:36:22.101Z,15.13
2022-12-26T06:38:52.404Z,14.93
2022-12-26T06:41:22.129Z,15.43
2022-12-26T06:43:50.930Z,14.88
2022-12-26T06:46:20.529Z,15.40
2022-12-26T06:48:48.987Z,15.35
2022-12-26T06:51:18.732Z,15.10
2022-12-26T06:53:47.107Z,15.57
2022-12-26T06:56:17.896Z,16.35
2022-12-26T06:58:46.247Z,17.25
2022-12-26T07:01:16.230Z,16.35
2022-12-26T07:03:51.656Z,16.60
2022-12-26T07:06:23.042Z,16.08
2022-12-26T07:08:51.713Z,17.45
2022-12-26T07:11:22.500Z,16.92
2022-12-26T07:13:50.964Z,15.98
2022-12-26T07:16:19.249Z,16.65
2022-12-26T07:18:47.506Z,17.23
2022-12-26T07:21:17.122Z,17.23
2022-12-26T07:23:46.256Z,16.80
2022-12-26T07:26:15.098Z,17.58
2022-12-26T07:28:44.819Z,17.67
2022-12-26T07:31:17.858Z,17.33
2022-12-26T07:33:48.423Z,16.08
2022-12-26T07:36:17.739Z,16.90
2022-12-26T07:38:46.504Z,16.60
2022-12-26T07:41:32.918Z,17.83
2022-12-26T07:44:02.625Z,16.75
2022-12-26T07:46:31.575Z,17.60
2022-12-26T07:48:59.980Z,16.77
2022-12-26T07:51:28.595Z,17.42
2022-12-26T07:53:57.333Z,17.52
2022-12-26T07:56:25.996Z,17.27
2022-12-26T07:58:54.391Z,17.83
2022-12-26T08:01:24.648Z,17.45
2022-12-26T08:03:53.597Z,17.88
2022-12-26T08:06:22.333Z,17.88
2022-12-26T08:08:52.462Z,17.10
2022-12-26T08:11:22.616Z,18.60
2022-12-26T08:13:51.170Z,18.98
2022-12-26T08:16:20.145Z,18.25
2022-12-26T08:18:50.368Z,18.92
2022-12-26T08:21:19.063Z,17.70
2022-12-26T08:23:48.504Z,18.58
2022-12-26T08:26:22.676Z,17.95
2022-12-26T08:28:51.661Z,18.48
2022-12-26T08:31:21.375Z,18.70
2022-12-26T08:33:51.649Z,19.02
2022-12-26T08:36:22.728Z,18.00
2022-12-26T08:38:50.861Z,17.77
2022-12-26T08:41:19.563Z,18.00
2022-12-26T08:46:39.604Z,17.25
2022-12-26T08:49:13.340Z,17.80
2022-12-26T08:51:41.918Z,18.08
2022-12-26T08:54:10.721Z,17.45
2022-12-26T08:56:39.279Z,18.25
2022-12-26T08:59:07.985Z,18.35
2022-12-26T09:01:36.691Z,17.45
2022-12-26T09:04:07.072Z,17.00
2022-12-26T09:06:38.551Z,18.42
2022-12-26T09:09:08.121Z,17.88
2022-12-26T09:11:37.728Z,17.20
2022-12-26T09:14:06.479Z,17.15
2022-12-26T09:16:39.346Z,18.65
2022-12-26T09:19:12.326Z,18.13
2022-12-26T09:21:44.415Z,17.75
2022-12-26T09:24:14.695Z,18.83
2022-12-26T09:26:42.990Z,19.33
2022-12-26T09:29:12.380Z,19.90
2022-12-26T09:31:40.962Z,19.90
2022-12-26T09:34:09.707Z,20.38
2022-12-26T09:36:39.084Z,19.30
2022-12-26T09:39:09.209Z,21.60
2022-12-26T09:42:01.023Z,19.55
2022-12-26T09:44:32.151Z,21.88
2022-12-26T09:47:07.289Z,21.23
2022-12-26T09:49:38.290Z,20.65
2022-12-26T09:52:11.541Z,20.55
2022-12-26T09:54:44.146Z,20.77
2022-12-26T09:57:16.834Z,19.67
2022-12-26T09:59:47.663Z,17.75
2022-12-26T10:02:19.441Z,18.20
2022-12-26T10:04:48.242Z,19.58
2022-12-26T10:07:23.044Z,19.05
2022-12-26T10:09:56.230Z,19.17
2022-12-26T10:12:37.911Z,19.27
2022-12-26T10:15:13.414Z,18.73
2022-12-26T10:17:43.961Z,21.90
2022-12-26T10:20:20.391Z,21.83
2022-12-26T10:23:04.053Z,21.42
2022-12-26T10:25:38.155Z,20.70
2022-12-26T10:28:08.300Z,22.25
2022-12-26T10:30:39.397Z,21.45
2022-12-26T10:33:13.755Z,22.17
2022-12-26T10:35:43.905Z,22.70
2022-12-26T10:38:14.995Z,22.02
2022-12-26T10:40:45.989Z,23.13
2022-12-26T10:43:22.497Z,22.95
2022-12-26T10:45:55.899Z,25.92
2022-12-26T10:48:27.035Z,25.13
2022-12-26T10:50:55.864Z,25.70
2022-12-26T10:53:25.288Z,25.60
2022-12-26T10:55:55.061Z,27.50
2022-12-26T10:58:25.745Z,24.55
2022-12-26T11:00:54.562Z,23.73
2022-12-26T11:03:23.544Z,23.52
2022-12-26T11:06:09.403Z,23.33
2022-12-26T11:08:43.132Z,22.30
2022-12-26T11:11:15.991Z,21.33
2022-12-26T11:13:49.053Z,20.63
2022-12-26T11:16:25.430Z,22.35
2022-12-26T11:18:54.599Z,21.10
2022-12-26T11:21:25.720Z,19.55
2022-12-26T11:23:56.061Z,18.40
2022-12-26T11:26:26.898Z,19.50
2022-12-26T11:29:07.198Z,19.77
2022-12-26T11:31:37.790Z,20.08
2022-12-26T11:34:09.912Z,20.60
2022-12-26T11:36:40.561Z,20.63
2022-12-26T11:39:20.782Z,21.00
2022-12-26T11:41:52.478Z,21.48
2022-12-26T11:44:22.853Z,21.42
2022-12-26T11:46:53.474Z,21.65
2022-12-26T11:49:24.258Z,20.35
2022-12-26T11:51:58.708Z,20.20
2022-12-26T11:54:29.639Z,20.85
2022-12-26T11:57:04.248Z,21.80
2022-12-26T11:59:33.764Z,20.80
2022-12-26T12:02:17.218Z,22.38
2022-12-26T12:04:46.346Z,21.85
2022-12-26T12:07:19.732Z,21.77
2022-12-26T12:09:52.669Z,20.95
2022-12-26T12:12:23.894Z,21.90
2022-12-26T12:14:58.111Z,21.58
2022-12-26T12:17:31.367Z,23.05
2022-12-26T12:20:04.456Z,20.75
2022-12-26T12:22:47.643Z,19.92
2022-12-26T12:25:31.155Z,19.52
2022-12-26T12:28:07.783Z,19.73
2022-12-26T12:30:40.239Z,17.15
2022-12-26T12:33:19.979Z,19.50
2022-12-26T12:35:56.056Z,21.40
2022-12-26T12:38:31.083Z,22.20
2022-12-26T12:41:08.426Z,24.77
2022-12-26T12:43:43.665Z,20.42
2022-12-26T12:46:19.466Z,21.92
2022-12-26T12:48:54.675Z,20.20
2022-12-26T12:51:28.967Z,21.13
2022-12-26T12:54:17.360Z,18.92
2022-12-26T12:56:48.719Z,19.30
2022-12-26T12:59:29.780Z,20.77
2022-12-26T13:02:06.994Z,19.77
2022-12-26T13:04:39.958Z,20.02
2022-12-26T13:07:12.497Z,21.88
2022-12-26T13:09:45.260Z,20.77
2022-12-26T13:12:17.217Z,19.15
2022-12-26T13:14:49.274Z,18.20
2022-12-26T13:17:19.346Z,19.08
2022-12-26T13:19:52.102Z,19.67
2022-12-26T13:22:25.168Z,18.55
2022-12-26T13:24:54.711Z,19.98
2022-12-26T13:27:23.795Z,19.40
2022-12-26T13:29:54.069Z,19.73
2022-12-26T13:32:24.091Z,20.95
2022-12-26T13:34:53.072Z,20.20
2022-12-26T13:37:40.142Z,19.23
2022-12-26T13:40:17.060Z,19.55
2022-12-26T13:43:03.776Z,20.90
2022-12-26T13:45:59.191Z,20.98
2022-12-26T13:48:46.803Z,22.63
2022-12-26T13:51:30.220Z,20.00
2022-12-26T13:54:04.115Z,20.13
2022-12-26T13:56:51.627Z,18.85
2022-12-26T13:59:24.385Z,18.10
2022-12-26T14:02:00.316Z,21.63
2022-12-26T14:04:39.900Z,19.75
2022-12-26T14:07:19.402Z,20.50
2022-12-26T14:10:02.613Z,20.38
2022-12-26T14:12:40.394Z,21.08
2022-12-26T14:15:17.568Z,21.15
2022-12-26T14:17:49.942Z,21.15
2022-12-26T14:20:26.843Z,20.80
2022-12-26T14:23:01.650Z,21.40
2022-12-26T14:25:32.367Z,21.67
2022-12-26T14:28:07.319Z,24.10
2022-12-26T14:30:36.523Z,22.08
2022-12-26T14:33:14.225Z,23.42
2022-12-26T14:35:47.206Z,23.17
2022-12-26T14:38:23.231Z,23.45
2022-12-26T14:41:09.365Z,23.85
2022-12-26T14:43:38.782Z,24.52
2022-12-26T14:46:11.163Z,23.85
2022-12-26T14:48:45.978Z,24.40
2022-12-26T14:51:31.779Z,23.52
2022-12-26T14:54:25.660Z,25.07
2022-12-26T14:56:54.511Z,24.95
2022-12-26T14:59:29.272Z,26.15
2022-12-26T15:02:10.708Z,24.00
2022-12-26T15:04:49.556Z,23.30
2022-12-26T15:07:27.678Z,22.77
2022-12-26T15:10:09.573Z,21.75
2022-12-26T15:13:04.887Z,20.73
2022-12-26T15:15:39.583Z,21.20
2022-12-26T15:18:26.684Z,24.67
2022-12-26T15:21:09.199Z,22.20
2022-12-26T15:23:46.541Z,20.20
2022-12-26T15:26:20.198Z,23.48
2022-12-26T15:28:55.864Z,29.52
2022-12-26T15:31:45.047Z,27.67
2022-12-26T15:34:31.530Z,21.95
2022-12-26T15:37:02.429Z,21.40
2022-12-26T15:39:36.064Z,22.08
2022-12-26T15:42:14.089Z,19.52
2022-12-26T15:44:46.894Z,20.15
2022-12-26T15:47:19.275Z,19.02
2022-12-26T15:49:55.925Z,19.73
2022-12-26T15:52:31.764Z,22.63
2022-12-26T15:55:27.267Z,22.17
2022-12-26T15:57:59.039Z,21.17
2022-12-26T16:00:28.532Z,20.83
2022-12-26T16:03:03.369Z,21.27
2022-12-26T16:05:39.392Z,18.30
2022-12-26T16:08:18.022Z,18.52
2022-12-26T16:10:52.579Z,22.67
2022-12-26T16:13:24.203Z,18.42
2022-12-26T16:15:54.530Z,19.85
2022-12-26T16:18:26.078Z,19.35
2022-12-26T16:21:12.789Z,19.20
2022-12-26T16:26:17.283Z,18.63
2022-12-26T16:28:46.306Z,21.85
2022-12-26T16:31:19.984Z,22.70
2022-12-26T16:33:50.354Z,25.65
2022-12-26T16:36:21.468Z,25.58
2022-12-26T16:38:51.279Z,25.50
2022-12-26T16:41:23.160Z,28.13
2022-12-26T16:43:52.489Z,24.75
2022-12-26T16:46:23.308Z,32.65
2022-12-26T16:48:54.923Z,24.60
2022-12-26T16:51:37.222Z,25.90
2022-12-26T16:54:16.109Z,23.63
2022-12-26T16:56:49.400Z,21.40
2022-12-26T16:59:19.273Z,24.02
2022-12-26T17:01:50.292Z,19.20
2022-12-26T17:04:19.943Z,19.13
2022-12-26T17:06:51.236Z,22.63
2022-12-26T17:09:20.182Z,22.92
2022-12-26T17:11:52.042Z,20.48
2022-12-26T17:14:22.085Z,21.20
2022-12-26T17:16:57.797Z,20.27
2022-12-26T17:19:28.871Z,21.05
2022-12-26T17:22:18.015Z,20.52
2022-12-26T17:24:47.271Z,21.80
2022-12-26T17:27:23.576Z,27.00
2022-12-26T17:29:54.488Z,19.85
2022-12-26T17:32:28.521Z,19.63
2022-12-26T17:35:00.563Z,18.33
2022-12-26T17:37:28.912Z,18.10
2022-12-26T17:40:09.622Z,19.02
2022-12-26T17:42:45.770Z,22.38
2022-12-26T17:45:19.458Z,22.15
2022-12-26T17:47:47.937Z,22.63
2022-12-26T17:50:16.917Z,23.73
2022-12-26T17:52:45.572Z,23.77
2022-12-26T17:55:16.445Z,26.17
2022-12-26T17:57:46.889Z,24.88
2022-12-26T18:00:19.999Z,27.10
2022-12-26T18:02:58.265Z,26.52
2022-12-26T18:05:26.419Z,28.90
2022-12-26T18:07:55.059Z,28.08
2022-12-26T18:10:25.795Z,25.02
2022-12-26T18:12:56.103Z,26.20
2022-12-26T18:15:24.889Z,24.83
2022-12-26T18:17:54.791Z,22.52
2022-12-26T18:20:25.000Z,21.20
2022-12-26T18:22:53.319Z,22.85
2022-12-26T18:25:22.745Z,21.13
2022-12-26T18:27:51.940Z,23.58
2022-12-26T18:30:23.023Z,22.45
2022-12-26T18:32:52.125Z,25.85
2022-12-26T18:35:20.927Z,27.45
2022-12-26T18:37:50.628Z,20.00
2022-12-26T18:40:26.357Z,21.80
2022-12-26T18:42:55.267Z,21.45
2022-12-26T18:45:24.881Z,25.15
2022-12-26T18:47:53.703Z,24.08
2022-12-26T18:50:22.539Z,22.52
2022-12-26T18:52:53.906Z,20.00
2022-12-26T18:55:26.506Z,20.35
2022-12-26T18:57:55.231Z,19.20
2022-12-26T19:00:25.706Z,21.17
2022-12-26T19:02:55.717Z,16.48
2022-12-26T19:05:26.276Z,18.23
2022-12-26T19:07:55.016Z,17.38
2022-12-26T19:10:26.046Z,16.75
2022-12-26T19:12:58.453Z,15.82
2022-12-26T19:15:34.695Z,17.40
2022-12-26T19:18:03.631Z,18.17
2022-12-26T19:20:32.624Z,15.88
2022-12-26T19:23:01.353Z,16.85
2022-12-26T19:25:30.196Z,15.98
2022-12-26T19:27:59.254Z,16.77
2022-12-26T19:30:27.640Z,16.08
2022-12-26T19:32:58.500Z,15.68
2022-12-26T19:35:27.141Z,16.02
2022-12-26T19:37:56.073Z,15.82
2022-12-26T19:40:25.389Z,16.50
2022-12-26T19:42:54.303Z,17.20
2022-12-26T19:45:23.112Z,17.02
2022-12-26T19:47:51.834Z,14.73
2022-12-26T19:50:22.806Z,15.95
2022-12-26T19:52:51.499Z,16.17
2022-12-26T19:55:20.284Z,15.93
2022-12-26T19:57:48.600Z,16.52
2022-12-26T20:00:17.365Z,17.65
2022-12-26T20:02:45.969Z,17.55
2022-12-26T20:05:14.442Z,17.25
2022-12-26T20:07:45.081Z,16.95
2022-12-26T20:10:13.995Z,18.45
2022-12-26T20:12:42.337Z,17.35
2022-12-26T20:15:11.125Z,15.35
2022-12-26T20:17:39.850Z,15.57
2022-12-26T20:20:08.679Z,15.75
2022-12-26T20:22:37.198Z,15.15
2022-12-26T20:25:10.025Z,14.98
2022-12-26T20:27:40.865Z,14.95
2022-12-26T20:30:10.166Z,15.05
2022-12-26T20:32:39.253Z,14.80
2022-12-26T20:35:09.920Z,14.63
2022-12-26T20:37:38.737Z,13.95
2022-12-26T20:40:11.466Z,16.30
2022-12-26T20:42:41.184Z,17.10
2022-12-26T20:45:10.219Z,19.23
2022-12-26T20:47:38.643Z,21.20
2022-12-26T20:50:07.876Z,19.02
2022-12-26T20:52:36.606Z,18.98
2022-12-26T20:55:05.127Z,20.85
2022-12-26T20:57:35.477Z,19.63
2022-12-26T21:00:04.619Z,18.73
2022-12-26T21:02:33.345Z,20.15
2022-12-26T21:05:01.680Z,19.65
2022-12-26T21:07:32.667Z,21.00
2022-12-26T21:10:01.635Z,21.23
2022-12-26T21:12:30.556Z,19.58
2022-12-26T21:15:11.338Z,23.50
2022-12-26T21:17:39.928Z,22.58
2022-12-26T21:20:09.010Z,22.33
2022-12-26T21:22:37.656Z,20.25
2022-12-26T21:25:06.843Z,20.05
2022-12-26T21:27:35.980Z,21.42
2022-12-26T21:30:04.296Z,20.05
2022-12-26T21:32:37.267Z,21.48
2022-12-26T21:35:06.208Z,21.38
2022-12-26T21:37:51.723Z,23.17
2022-12-26T21:40:21.059Z,21.85
2022-12-26T21:42:49.703Z,20.00
2022-12-26T21:45:18.305Z,21.23
2022-12-26T21:47:49.328Z,21.67
2022-12-26T21:50:20.403Z,22.48
2022-12-26T21:52:48.904Z,23.42
2022-12-26T21:55:31.270Z,23.33
2022-12-26T21:58:01.259Z,25.13
2022-12-26T22:00:29.826Z,24.70
2022-12-26T22:03:17.413Z,24.77
2022-12-26T22:05:46.381Z,26.88
2022-12-26T22:08:15.380Z,28.40
2022-12-26T22:11:01.864Z,26.58
2022-12-26T22:13:32.313Z,24.98
2022-12-26T22:16:07.733Z,22.92
2022-12-26T22:18:39.490Z,23.40
2022-12-26T22:21:09.790Z,25.02
2022-12-26T22:23:38.670Z,26.40
2022-12-26T22:26:07.659Z,23.13
2022-12-26T22:28:36.359Z,24.52
2022-12-26T22:31:05.346Z,26.38
2022-12-26T22:33:34.652Z,26.70
2022-12-26T22:36:08.261Z,25.00
2022-12-26T22:38:37.535Z,24.90
2022-12-26T22:41:06.285Z,24.27
2022-12-26T22:43:34.599Z,24.85
2022-12-26T22:46:03.231Z,25.63
2022-12-26T22:48:31.518Z,26.75
2022-12-26T22:51:00.208Z,26.73
2022-12-26T22:53:30.638Z,26.48
2022-12-26T22:55:59.786Z,26.27
2022-12-26T22:58:28.823Z,25.85
2022-12-26T23:00:57.657Z,27.23
2022-12-26T23:03:26.845Z,27.30
2022-12-26T23:05:56.183Z,31.80
2022-12-26T23:08:27.471Z,31.42
2022-12-26T23:10:59.245Z,30.83
2022-12-26T23:13:27.654Z,31.67
2022-12-26T23:15:57.073Z,32.70
2022-12-26T23:18:46.952Z,30.52
2022-12-26T23:21:36.138Z,29.50
2022-12-26T23:24:04.719Z,29.63
2022-12-26T23:26:34.240Z,28.70
2022-12-26T23:29:21.957Z,32.17
2022-12-26T23:31:50.414Z,24.80
2022-12-26T23:34:19.211Z,21.45
2022-12-26T23:36:47.881Z,20.48
2022-12-26T23:39:16.419Z,18.55
2022-12-26T23:41:47.101Z,19.67
2022-12-26T23:44:15.838Z,20.63
2022-12-26T23:46:44.759Z,20.17
2022-12-26T23:49:13.608Z,21.50
2022-12-26T23:51:42.405Z,21.23
2022-12-26T23:54:11.467Z,20.25
2022-12-26T23:56:40.121Z,20.50
2022-12-26T23:59:09.573Z,19.48
